createdAt,value
2018-01-16T00:01:31.824Z,5.03
2018-01-16T00:04:08.789Z,5.00
2018-01-16T00:07:16.597Z,5.06
2018-01-16T00:12:38.593Z,5.09
2018-01-16T00:16:24.895Z,5.07
2018-01-16T00:18:38.138Z,5.03
2018-01-16T00:20:51.474Z,5.15
2018-01-16T00:21:51.439Z,5.11
2018-01-16T00:23:44.891Z,5.11
2018-01-16T00:26:21.739Z,5.15
2018-01-16T00:27:53.961Z,5.11
2018-01-16T00:28:53.917Z,5.21
2018-01-16T00:32:41.112Z,5.06
2018-01-16T00:34:13.333Z,5.16
2018-01-16T00:36:26.827Z,5.14
2018-01-16T00:40:12.770Z,5.12
2018-01-16T00:41:12.726Z,5.21
2018-01-16T00:43:06.062Z,5.12
2018-01-16T00:45:22.038Z,5.12
2018-01-16T00:46:21.907Z,5.21
2018-01-16T00:48:15.336Z,5.22
2018-01-16T00:49:15.173Z,5.18
2018-01-16T00:55:49.664Z,5.12
2018-01-16T00:56:49.621Z,5.21
2018-01-16T00:58:42.970Z,5.14
2018-01-16T01:02:29.866Z,5.18
2018-01-16T01:06:18.554Z,5.12
2018-01-16T01:10:04.784Z,5.27
2018-01-16T01:12:41.534Z,5.19
2018-01-16T01:15:49.420Z,5.30
2018-01-16T01:18:23.447Z,5.27
2018-01-16T01:19:55.980Z,5.27
2018-01-16T01:22:09.291Z,5.27
2018-01-16T01:23:09.148Z,5.27
2018-01-16T01:28:08.878Z,5.30
2018-01-16T01:29:07.919Z,5.29
2018-01-16T01:31:22.386Z,5.36
2018-01-16T01:37:54.937Z,5.32
2018-01-16T01:39:48.118Z,5.36
2018-01-16T01:41:21.354Z,5.40
2018-01-16T01:42:20.399Z,5.41
2018-01-16T01:44:13.869Z,5.44
2018-01-16T01:45:13.715Z,5.50
2018-01-16T01:47:07.065Z,5.44
2018-01-16T01:49:42.319Z,5.32
2018-01-16T01:51:34.858Z,5.41
2018-01-16T01:53:07.087Z,5.47
2018-01-16T01:55:22.960Z,5.48
2018-01-16T01:57:38.950Z,5.47
2018-01-16T01:58:38.753Z,5.48
2018-01-16T02:00:32.113Z,5.51
2018-01-16T02:03:09.060Z,5.48
2018-01-16T02:05:03.399Z,5.48
2018-01-16T02:08:10.879Z,5.54
2018-01-16T02:11:58.021Z,5.54
2018-01-16T02:14:31.398Z,5.48
2018-01-16T02:17:36.610Z,5.57
2018-01-16T02:19:52.416Z,5.41
2018-01-16T02:20:52.386Z,5.39
2018-01-16T02:23:06.853Z,5.39
2018-01-16T02:24:39.130Z,5.51
2018-01-16T02:25:39.043Z,5.50
2018-01-16T02:27:34.904Z,5.48
2018-01-16T02:28:34.852Z,5.52
2018-01-16T02:30:49.311Z,5.47
2018-01-16T02:33:55.173Z,5.48
2018-01-16T02:34:55.159Z,5.50
2018-01-16T02:36:48.635Z,5.54
2018-01-16T02:37:48.440Z,5.52
2018-01-16T02:39:41.797Z,5.54
2018-01-16T02:40:41.754Z,5.43
2018-01-16T02:42:35.227Z,5.57
2018-01-16T02:45:10.384Z,5.55
2018-01-16T02:47:02.802Z,5.54
2018-01-16T02:48:35.179Z,5.50
2018-01-16T02:49:35.090Z,5.48
2018-01-16T02:51:28.551Z,5.57
2018-01-16T02:52:28.406Z,5.55
2018-01-16T02:54:42.870Z,5.58
2018-01-16T02:57:47.946Z,5.51
2018-01-16T02:58:47.789Z,5.62
2018-01-16T03:01:04.672Z,5.65
2018-01-16T03:04:09.763Z,5.69
2018-01-16T03:05:09.716Z,5.66
2018-01-16T03:07:03.217Z,5.73
2018-01-16T03:09:17.369Z,5.61
2018-01-16T03:10:17.170Z,5.72
2018-01-16T03:14:04.373Z,5.69
2018-01-16T03:17:30.455Z,5.72
2018-01-16T03:19:23.902Z,5.77
2018-01-16T03:20:56.318Z,5.73
2018-01-16T03:23:11.970Z,5.70
2018-01-16T03:25:52.347Z,5.66
2018-01-16T03:26:52.329Z,5.73
2018-01-16T03:27:31.279Z,5.73
2018-01-16T03:28:31.256Z,5.73
2018-01-16T03:29:31.259Z,5.69
2018-01-16T03:30:31.273Z,5.67
2018-01-16T03:31:52.179Z,5.70
2018-01-16T03:34:24.407Z,5.77
2018-01-16T03:36:17.694Z,5.79
2018-01-16T03:37:49.930Z,5.80
2018-01-16T03:40:03.412Z,5.84
2018-01-16T03:42:16.736Z,5.84
2018-01-16T03:44:50.937Z,5.88
2018-01-16T03:47:58.655Z,5.87
2018-01-16T03:50:14.484Z,5.88
2018-01-16T03:52:48.932Z,5.84
2018-01-16T03:54:41.675Z,5.73
2018-01-16T03:56:14.156Z,5.84
2018-01-16T03:58:27.444Z,5.84
2018-01-16T04:01:04.197Z,5.79
2018-01-16T04:02:36.851Z,5.82
2018-01-16T04:05:13.817Z,5.79
2018-01-16T04:06:46.062Z,5.80
2018-01-16T04:07:45.993Z,5.87
2018-01-16T04:11:14.763Z,5.85
2018-01-16T04:13:30.507Z,5.88
2018-01-16T04:19:13.078Z,5.85
2018-01-16T04:20:45.269Z,5.91
2018-01-16T04:21:45.229Z,5.90
2018-01-16T04:24:03.006Z,5.93
2018-01-16T04:25:55.419Z,5.90
2018-01-16T04:27:49.605Z,5.90
2018-01-16T04:30:54.794Z,6.06
2018-01-16T04:33:07.760Z,5.98
2018-01-16T04:38:30.982Z,5.97
2018-01-16T04:40:46.822Z,6.05
2018-01-16T04:43:23.550Z,6.03
2018-01-16T04:48:22.354Z,5.98
2018-01-16T04:50:15.691Z,6.00
2018-01-16T04:52:09.133Z,6.06
2018-01-16T04:53:41.356Z,6.06
2018-01-16T04:54:41.309Z,6.02
2018-01-16T04:58:10.861Z,5.94
2018-01-16T04:59:10.822Z,6.06
2018-01-16T05:01:26.982Z,6.02
2018-01-16T05:02:58.528Z,5.95
2018-01-16T05:05:11.754Z,5.94
2018-01-16T05:06:11.715Z,5.88
2018-01-16T05:11:10.757Z,5.87
2018-01-16T05:13:24.106Z,5.88
2018-01-16T05:14:23.951Z,5.91
2018-01-16T05:16:19.972Z,5.85
2018-01-16T05:18:35.658Z,5.94
2018-01-16T05:19:35.616Z,5.91
2018-01-16T05:21:50.156Z,5.87
2018-01-16T05:23:43.354Z,5.88
2018-01-16T05:25:15.701Z,5.84
2018-01-16T05:27:29.191Z,5.90
2018-01-16T05:28:28.992Z,5.88
2018-01-16T05:30:25.021Z,5.91
2018-01-16T05:32:59.499Z,5.90
2018-01-16T05:36:06.883Z,5.94
2018-01-16T05:37:06.727Z,5.80
2018-01-16T05:39:00.193Z,5.85
2018-01-16T05:40:00.073Z,5.85
2018-01-16T05:45:01.473Z,5.88
2018-01-16T05:46:01.433Z,6.00
2018-01-16T05:49:28.672Z,5.91
2018-01-16T05:50:28.482Z,5.87
2018-01-16T05:52:42.834Z,5.95
2018-01-16T05:57:23.486Z,5.97
2018-01-16T05:58:23.445Z,5.97
2018-01-16T06:01:53.099Z,5.93
2018-01-16T06:02:52.901Z,5.98
2018-01-16T06:04:46.260Z,5.91
2018-01-16T06:08:34.933Z,5.85
2018-01-16T06:09:34.893Z,5.93
2018-01-16T06:11:28.242Z,5.91
2018-01-16T06:14:05.190Z,5.90
2018-01-16T06:15:37.530Z,5.94
2018-01-16T06:16:37.371Z,5.94
2018-01-16T06:18:33.224Z,5.90
2018-01-16T06:19:33.184Z,6.02
2018-01-16T06:21:26.701Z,6.02
2018-01-16T06:22:26.503Z,5.93
2018-01-16T06:26:16.276Z,6.02
2018-01-16T06:29:42.349Z,5.95
2018-01-16T06:32:47.570Z,6.00
2018-01-16T06:33:47.529Z,5.97
2018-01-16T06:35:40.891Z,5.94
2018-01-16T06:37:54.335Z,5.97
2018-01-16T06:38:54.186Z,5.91
2018-01-16T06:42:21.117Z,5.80
2018-01-16T06:43:21.068Z,5.80
2018-01-16T06:46:49.781Z,5.70
2018-01-16T06:47:49.739Z,5.61
2018-01-16T06:49:43.113Z,5.70
2018-01-16T06:51:56.575Z,5.67
2018-01-16T06:57:41.453Z,5.79
2018-01-16T06:59:13.757Z,5.61
2018-01-16T07:00:13.593Z,5.73
2018-01-16T07:02:06.972Z,5.72
2018-01-16T07:03:06.929Z,5.73
2018-01-16T07:05:01.163Z,5.82
2018-01-16T07:10:20.247Z,5.73
2018-01-16T07:11:20.048Z,5.80
2018-01-16T07:14:48.787Z,5.79
2018-01-16T07:15:48.722Z,5.72
2018-01-16T07:18:03.094Z,5.72
2018-01-16T07:19:35.542Z,5.73
2018-01-16T07:22:12.278Z,5.73
2018-01-16T07:23:44.619Z,5.69
2018-01-16T07:26:19.069Z,5.73
2018-01-16T07:31:01.987Z,5.66
2018-01-16T07:32:01.836Z,5.70
2018-01-16T07:35:28.268Z,5.62
2018-01-16T07:37:44.219Z,5.66
2018-01-16T07:40:00.073Z,5.61
2018-01-16T07:40:59.912Z,5.62
2018-01-16T07:47:34.245Z,5.62
2018-01-16T07:48:34.093Z,5.61
2018-01-16T07:50:27.450Z,5.61
2018-01-16T07:52:40.905Z,5.61
2018-01-16T07:54:54.255Z,5.69
2018-01-16T07:55:54.102Z,5.72
2018-01-16T07:58:10.970Z,5.73
2018-01-16T07:59:43.444Z,5.76
2018-01-16T08:00:43.290Z,5.73
2018-01-16T08:02:58.592Z,5.79
2018-01-16T08:04:30.004Z,5.90
2018-01-16T08:05:29.968Z,5.90
2018-01-16T08:07:23.356Z,5.88
2018-01-16T08:09:36.847Z,5.87
2018-01-16T08:11:52.638Z,5.98
2018-01-16T08:12:52.491Z,5.98
2018-01-16T08:15:06.993Z,5.91
2018-01-16T08:16:41.672Z,5.97
2018-01-16T08:18:58.443Z,5.84
2018-01-16T08:19:57.475Z,5.84
2018-01-16T08:23:44.709Z,5.69
2018-01-16T08:27:12.016Z,5.44
2018-01-16T08:30:17.022Z,5.43
2018-01-16T08:31:16.987Z,5.39
2018-01-16T08:33:10.478Z,5.37
2018-01-16T08:34:10.325Z,5.36
2018-01-16T08:36:03.690Z,5.33
2018-01-16T08:38:40.629Z,5.34
2018-01-16T08:40:15.361Z,5.32
2018-01-16T08:42:31.196Z,5.29
2018-01-16T08:44:44.153Z,5.33
2018-01-16T08:50:28.317Z,5.33
2018-01-16T08:53:33.347Z,5.41
2018-01-16T08:54:33.301Z,5.43
2018-01-16T08:56:26.673Z,5.50
2018-01-16T08:57:26.628Z,5.47
2018-01-16T08:59:19.611Z,5.54
2018-01-16T09:00:19.444Z,5.48
2018-01-16T09:02:16.144Z,5.65
2018-01-16T09:06:02.349Z,5.66
2018-01-16T09:08:15.578Z,5.75
2018-01-16T09:14:03.859Z,5.69
2018-01-16T09:15:36.369Z,5.72
2018-01-16T09:18:10.661Z,5.82
2018-01-16T09:19:42.899Z,5.85
2018-01-16T09:22:18.078Z,5.84
2018-01-16T09:26:56.988Z,5.94
2018-01-16T09:29:32.309Z,5.95
2018-01-16T09:31:04.548Z,6.02
2018-01-16T09:34:50.762Z,6.08
2018-01-16T09:35:50.574Z,6.11
2018-01-16T09:37:46.585Z,6.27
2018-01-16T09:41:32.005Z,6.42
2018-01-16T09:42:31.962Z,6.47
2018-01-16T09:49:08.770Z,6.57
2018-01-16T09:51:22.245Z,6.60
2018-01-16T09:52:22.094Z,6.55
2018-01-16T09:55:48.283Z,6.63
2018-01-16T09:56:48.160Z,6.57
2018-01-16T10:01:52.958Z,6.61
2018-01-16T10:02:51.995Z,6.60
2018-01-16T10:07:51.950Z,6.60
2018-01-16T10:08:51.757Z,6.56
2018-01-16T10:10:47.736Z,6.56
2018-01-16T10:11:47.572Z,6.73
2018-01-16T10:13:40.943Z,6.56
2018-01-16T10:14:40.908Z,6.68
2018-01-16T10:16:36.909Z,6.65
2018-01-16T10:21:55.919Z,6.61
2018-01-16T10:25:44.506Z,6.60
2018-01-16T10:27:58.725Z,6.60
2018-01-16T10:30:12.057Z,6.65
2018-01-16T10:31:12.016Z,6.61
2018-01-16T10:33:08.038Z,6.61
2018-01-16T10:34:07.845Z,6.63
2018-01-16T10:36:22.375Z,6.73
2018-01-16T10:37:54.583Z,6.78
2018-01-16T10:38:54.524Z,6.85
2018-01-16T10:42:20.932Z,6.86
2018-01-16T10:43:20.893Z,6.93
2018-01-16T10:47:10.674Z,7.10
2018-01-16T10:49:04.663Z,7.13
2018-01-16T10:50:37.009Z,7.11
2018-01-16T10:51:36.961Z,7.15
2018-01-16T10:53:31.989Z,7.08
2018-01-16T10:56:07.496Z,7.15
2018-01-16T10:58:00.727Z,7.10
2018-01-16T10:59:35.724Z,7.07
2018-01-16T11:00:35.586Z,7.18
2018-01-16T11:02:28.932Z,7.18
2018-01-16T11:03:28.896Z,7.36
2018-01-16T11:05:24.772Z,7.40
2018-01-16T11:07:38.094Z,7.81
2018-01-16T11:08:38.053Z,7.87
2018-01-16T11:10:52.559Z,8.10
2018-01-16T11:12:24.883Z,8.23
2018-01-16T11:13:24.733Z,8.32
2018-01-16T11:15:18.092Z,8.34
2018-01-16T11:17:52.582Z,8.41
2018-01-16T11:19:25.730Z,8.41
2018-01-16T11:20:24.731Z,8.44
2018-01-16T11:22:18.943Z,8.68
2018-01-16T11:23:18.907Z,8.71
2018-01-16T11:27:08.826Z,8.86
2018-01-16T11:28:41.012Z,8.81
2018-01-16T11:32:51.746Z,8.52
2018-01-16T11:36:17.786Z,8.21
2018-01-16T11:38:11.159Z,8.19
2018-01-16T11:39:46.005Z,8.10
2018-01-16T11:40:45.966Z,8.05
2018-01-16T11:42:41.934Z,7.96
2018-01-16T11:43:41.782Z,7.98
2018-01-16T11:45:56.249Z,7.86
2018-01-16T11:50:39.081Z,7.77
2018-01-16T11:51:38.928Z,7.83
2018-01-16T11:53:54.202Z,7.78
2018-01-16T11:55:29.612Z,7.84
2018-01-16T11:56:28.102Z,7.86
2018-01-16T11:58:21.562Z,7.87
2018-01-16T12:00:34.840Z,7.84
2018-01-16T12:04:23.469Z,7.76
2018-01-16T12:06:36.949Z,7.73
2018-01-16T12:10:22.883Z,7.66
2018-01-16T12:11:22.845Z,7.74
2018-01-16T12:13:30.573Z,7.71
2018-01-16T12:14:16.166Z,7.69
2018-01-16T12:16:12.151Z,7.73
2018-01-16T12:23:13.876Z,7.62
2018-01-16T12:24:13.719Z,7.61
2018-01-16T12:26:08.110Z,7.73
2018-01-16T12:28:24.055Z,7.71
2018-01-16T12:29:23.896Z,7.64
2018-01-16T12:31:17.422Z,7.76
2018-01-16T12:32:17.222Z,7.76
2018-01-16T12:34:10.579Z,7.80
2018-01-16T12:36:45.116Z,7.80
2018-01-16T12:38:17.292Z,7.88
2018-01-16T12:43:39.822Z,7.83
2018-01-16T12:44:39.797Z,7.78
2018-01-16T12:46:33.696Z,7.84
2018-01-16T12:47:33.109Z,7.92
2018-01-16T12:49:47.640Z,7.96
2018-01-16T12:51:19.846Z,8.09
2018-01-16T12:53:54.161Z,8.12
2018-01-16T12:55:26.602Z,8.16
2018-01-16T12:56:26.461Z,8.13
2018-01-16T12:58:20.778Z,8.14
2018-01-16T13:00:54.967Z,8.02
2018-01-16T13:02:26.889Z,8.13
2018-01-16T13:05:03.891Z,8.12
2018-01-16T13:06:36.058Z,7.98
2018-01-16T13:07:36.022Z,7.91
2018-01-16T13:09:29.418Z,7.86
2018-01-16T13:12:03.866Z,7.81
2018-01-16T13:13:36.085Z,7.71
2018-01-16T13:15:52.084Z,7.64
2018-01-16T13:16:51.904Z,7.68
2018-01-16T13:21:51.062Z,7.54
2018-01-16T13:24:04.354Z,7.46
2018-01-16T13:25:04.209Z,7.54
2018-01-16T13:26:57.726Z,7.44
2018-01-16T13:27:57.532Z,7.39
2018-01-16T13:29:50.920Z,7.36
2018-01-16T13:32:04.256Z,7.22
2018-01-16T13:34:17.742Z,7.13
2018-01-16T13:35:17.547Z,7.08
2018-01-16T13:37:31.909Z,6.88
2018-01-16T13:40:37.221Z,6.68
2018-01-16T13:41:37.072Z,6.49
2018-01-16T13:43:53.945Z,6.43
2018-01-16T13:46:59.344Z,6.27
2018-01-16T13:47:58.997Z,6.28
2018-01-16T13:49:52.350Z,6.13
2018-01-16T13:52:26.803Z,6.11
2018-01-16T13:53:59.213Z,6.03
2018-01-16T13:56:35.905Z,5.93
2018-01-16T13:58:29.262Z,5.76
2018-01-16T14:00:04.256Z,5.77
2018-01-16T14:01:04.061Z,5.73
2018-01-16T14:02:57.416Z,5.66
2018-01-16T14:06:43.710Z,5.59
2018-01-16T14:08:57.004Z,5.61
2018-01-16T14:09:56.965Z,5.65
2018-01-16T14:12:11.483Z,5.57
2018-01-16T14:15:16.509Z,5.62
2018-01-16T14:19:26.191Z,5.65
2018-01-16T14:20:58.516Z,5.72
2018-01-16T14:21:58.467Z,5.70
2018-01-16T14:24:12.945Z,5.65
2018-01-16T14:26:06.184Z,5.69
2018-01-16T14:27:59.049Z,5.59
2018-01-16T14:29:31.010Z,5.58
2018-01-16T14:31:44.360Z,5.62
2018-01-16T14:32:44.194Z,5.62
2018-01-16T14:34:37.657Z,5.58
2018-01-16T14:37:12.892Z,5.73
2018-01-16T14:39:07.185Z,5.61
2018-01-16T14:40:39.405Z,5.66
2018-01-16T14:41:39.384Z,5.65
2018-01-16T14:43:53.801Z,5.65
2018-01-16T14:45:48.018Z,5.69
2018-01-16T14:47:40.446Z,5.70
2018-01-16T14:49:12.829Z,5.65
2018-01-16T14:51:26.240Z,5.77
2018-01-16T14:53:39.480Z,5.91
2018-01-16T14:55:52.852Z,5.84
2018-01-16T14:56:52.773Z,5.82
2018-01-16T14:58:48.744Z,5.88
2018-01-16T15:01:01.965Z,5.91
2018-01-16T15:03:15.309Z,6.06
2018-01-16T15:04:15.267Z,6.02
2018-01-16T15:06:11.241Z,6.05
2018-01-16T15:08:45.576Z,5.98
2018-01-16T15:10:17.798Z,6.03
2018-01-16T15:11:17.765Z,5.91
2018-01-16T15:13:11.130Z,5.88
2018-01-16T15:15:24.576Z,5.88
2018-01-16T15:17:58.821Z,5.84
2018-01-16T15:19:31.249Z,5.87
2018-01-16T15:21:44.587Z,5.77
2018-01-16T15:23:57.814Z,5.69
2018-01-16T15:24:57.773Z,5.65
2018-01-16T15:26:51.445Z,5.76
2018-01-16T15:27:51.092Z,5.69
2018-01-16T15:30:05.560Z,5.75
2018-01-16T15:31:40.302Z,5.72
2018-01-16T15:34:17.200Z,5.72
2018-01-16T15:38:55.236Z,5.58
2018-01-16T15:39:55.175Z,5.54
2018-01-16T15:41:48.533Z,5.65
2018-01-16T15:42:48.481Z,5.58
2018-01-16T15:44:41.842Z,5.66
2018-01-16T15:45:41.798Z,5.67
2018-01-16T15:47:56.224Z,5.61
2018-01-16T15:49:49.719Z,5.54
2018-01-16T15:51:21.949Z,5.55
2018-01-16T15:52:21.855Z,5.61
2018-01-16T15:54:15.321Z,5.54
2018-01-16T15:55:15.168Z,5.54
2018-01-16T15:57:11.860Z,5.57
2018-01-16T15:58:11.811Z,5.55
2018-01-16T16:00:07.794Z,5.62
2018-01-16T16:01:07.635Z,5.43
2018-01-16T16:03:03.503Z,5.57
2018-01-16T16:05:19.663Z,5.51
2018-01-16T16:06:19.308Z,5.50
2018-01-16T16:08:12.679Z,5.48
2018-01-16T16:09:12.640Z,5.47
2018-01-16T16:11:30.401Z,5.47
2018-01-16T16:13:25.336Z,5.37
2018-01-16T16:16:51.019Z,5.34
2018-01-16T16:18:23.472Z,5.32
2018-01-16T16:20:39.186Z,5.19
2018-01-16T16:24:51.759Z,5.25
2018-01-16T16:26:21.504Z,5.32
2018-01-16T16:28:34.949Z,5.29
2018-01-16T16:29:34.800Z,5.25
2018-01-16T16:31:49.172Z,5.29
2018-01-16T16:33:21.510Z,5.21
2018-01-16T16:34:21.470Z,5.32
2018-01-16T16:36:38.393Z,5.32
2018-01-16T16:38:10.859Z,5.29
2018-01-16T16:40:24.118Z,5.30
2018-01-16T16:41:24.036Z,5.34
2018-01-16T16:45:13.660Z,5.34
2018-01-16T16:47:09.354Z,5.30
2018-01-16T16:48:41.842Z,5.29
2018-01-16T16:49:41.643Z,5.29
2018-01-16T16:51:35.080Z,5.34
2018-01-16T16:52:35.016Z,5.33
2018-01-16T16:54:28.367Z,5.30
2018-01-16T16:55:28.325Z,5.30
2018-01-16T16:57:21.797Z,5.30
2018-01-16T16:58:21.643Z,5.21
2018-01-16T17:02:11.355Z,5.34
2018-01-16T17:03:43.581Z,5.25
2018-01-16T17:09:28.536Z,5.19
2018-01-16T17:11:00.978Z,5.14
2018-01-16T17:13:37.820Z,5.15
2018-01-16T17:15:10.042Z,5.18
2018-01-16T17:18:58.804Z,5.18
2018-01-16T17:21:12.160Z,5.15
2018-01-16T17:23:25.502Z,5.18
2018-01-16T17:24:25.437Z,5.19
2018-01-16T17:26:39.945Z,5.12
2018-01-16T17:29:45.023Z,5.16
2018-01-16T17:30:44.829Z,5.14
2018-01-16T17:32:38.213Z,5.25
2018-01-16T17:33:38.202Z,5.30
2018-01-16T17:35:31.623Z,5.22
2018-01-16T17:37:44.996Z,5.15
2018-01-16T17:38:44.816Z,5.18
2018-01-16T17:40:38.339Z,5.11
2018-01-16T17:42:51.735Z,5.18
2018-01-16T17:43:51.538Z,5.14
2018-01-16T17:47:41.135Z,5.21
2018-01-16T17:52:40.166Z,5.15
2018-01-16T17:55:45.345Z,5.14
2018-01-16T17:56:45.231Z,5.16
2018-01-16T18:00:32.394Z,5.03
2018-01-16T18:02:04.720Z,5.09
2018-01-16T18:03:04.673Z,5.09
2018-01-16T18:04:58.186Z,5.04
2018-01-16T18:05:57.987Z,5.11
2018-01-16T18:09:47.727Z,5.33
2018-01-16T18:11:20.061Z,5.32
2018-01-16T18:13:33.558Z,5.33
2018-01-16T18:14:33.355Z,5.34
2018-01-16T18:16:26.820Z,5.30
2018-01-16T18:17:26.687Z,5.30
2018-01-16T18:19:22.534Z,5.30
2018-01-16T18:20:22.475Z,5.30
2018-01-16T18:22:16.790Z,5.29
2018-01-16T18:24:53.652Z,5.18
2018-01-16T18:26:46.862Z,5.14
2018-01-16T18:28:19.388Z,5.19
2018-01-16T18:32:07.927Z,5.07
2018-01-16T18:35:56.653Z,5.15
2018-01-16T18:36:56.473Z,5.06
2018-01-16T18:40:22.677Z,4.93
2018-01-16T18:41:22.640Z,4.98
2018-01-16T18:43:15.993Z,4.91
2018-01-16T18:47:02.609Z,4.93
2018-01-16T18:48:02.464Z,4.91
2018-01-16T18:51:31.457Z,4.88
2018-01-16T18:55:22.685Z,4.83
2018-01-16T18:57:36.020Z,4.89
2018-01-16T19:00:11.315Z,4.88
2018-01-16T19:03:16.234Z,4.86
2018-01-16T19:04:16.200Z,4.91
2018-01-16T19:06:30.692Z,4.91
2018-01-16T19:08:23.901Z,4.93
2018-01-16T19:10:16.744Z,4.89
2018-01-16T19:11:51.604Z,4.88
2018-01-16T19:14:07.462Z,4.85
2018-01-16T19:15:07.408Z,4.88
2018-01-16T19:17:01.895Z,4.79
2018-01-16T19:18:01.695Z,4.89
2018-01-16T19:21:27.889Z,4.82
2018-01-16T19:22:27.864Z,4.78
2018-01-16T19:24:21.191Z,4.74
2018-01-16T19:25:21.161Z,4.72
2018-01-16T19:27:14.659Z,4.78
2018-01-16T19:28:14.481Z,4.72
2018-01-16T19:30:28.879Z,4.79
2018-01-16T19:33:36.584Z,4.71
2018-01-16T19:34:36.545Z,4.79
2018-01-16T19:36:29.896Z,4.67
2018-01-16T19:37:29.851Z,4.78
2018-01-16T19:39:23.203Z,4.71
2018-01-16T19:41:57.545Z,4.75
2018-01-16T19:43:30.057Z,4.66
2018-01-16T19:44:29.857Z,4.66
2018-01-16T19:48:17.784Z,4.64
2018-01-16T19:49:52.754Z,4.64
2018-01-16T19:50:52.585Z,4.63
2018-01-16T19:52:46.112Z,4.66
2018-01-16T19:55:01.781Z,4.71
2018-01-16T19:57:39.536Z,4.67
2018-01-16T19:59:10.963Z,4.63
2018-01-16T20:04:30.869Z,4.61
2018-01-16T20:07:07.693Z,4.66
2018-01-16T20:08:43.431Z,4.64
2018-01-16T20:09:43.278Z,4.64
2018-01-16T20:11:37.774Z,4.64
2018-01-16T20:12:37.591Z,4.72
2018-01-16T20:14:30.948Z,4.61
2018-01-16T20:16:45.238Z,4.71
2018-01-16T20:17:44.246Z,4.71
2018-01-16T20:19:58.624Z,4.66
2018-01-16T20:21:53.096Z,4.69
2018-01-16T20:25:00.622Z,4.71
2018-01-16T20:26:00.575Z,4.64
2018-01-16T20:27:54.036Z,4.71
2018-01-16T20:28:53.887Z,4.77
2018-01-16T20:38:52.285Z,4.56
2018-01-16T20:40:45.476Z,4.49
2018-01-16T20:42:17.934Z,4.56
2018-01-16T20:43:17.784Z,4.43
2018-01-16T20:45:32.135Z,4.35
2018-01-16T20:47:25.486Z,4.34
2018-01-16T20:49:18.985Z,4.38
2018-01-16T20:50:51.279Z,4.38
2018-01-16T20:53:25.518Z,4.17
2018-01-16T20:54:57.850Z,4.17
2018-01-16T20:55:57.807Z,4.21
2018-01-16T20:57:51.187Z,4.16
2018-01-16T20:58:51.130Z,4.09
2018-01-16T21:00:44.653Z,4.16
2018-01-16T21:01:44.448Z,4.13
2018-01-16T21:03:40.458Z,4.12
2018-01-16T21:04:40.261Z,4.10
2018-01-16T21:06:33.732Z,4.20
2018-01-16T21:08:49.482Z,4.16
2018-01-16T21:09:49.435Z,4.26
2018-01-16T21:11:42.907Z,4.38
2018-01-16T21:12:42.751Z,4.39
2018-01-16T21:14:36.218Z,4.46
2018-01-16T21:16:51.947Z,4.45
2018-01-16T21:21:04.327Z,4.63
2018-01-16T21:22:57.466Z,4.61
2018-01-16T21:24:50.713Z,4.63
2018-01-16T21:26:44.022Z,4.59
2018-01-16T21:28:16.482Z,4.71
2018-01-16T21:30:29.720Z,4.61
2018-01-16T21:31:29.658Z,4.66
2018-01-16T21:33:23.130Z,4.67
2018-01-16T21:37:11.612Z,4.66
2018-01-16T21:38:11.569Z,4.74
2018-01-16T21:41:37.811Z,4.63
2018-01-16T21:42:37.757Z,4.61
2018-01-16T21:44:31.097Z,4.59
2018-01-16T21:48:39.161Z,4.72
2018-01-16T21:50:11.505Z,4.69
2018-01-16T21:52:45.832Z,4.66
2018-01-16T21:54:18.162Z,4.72
2018-01-16T21:56:34.128Z,4.59
2018-01-16T21:58:48.452Z,4.64
2018-01-16T22:01:00.692Z,4.57
2018-01-16T22:02:00.649Z,4.46
2018-01-16T22:03:54.146Z,4.49
2018-01-16T22:04:53.965Z,4.46
2018-01-16T22:07:08.318Z,4.42
2018-01-16T22:09:01.676Z,4.48
2018-01-16T22:10:34.026Z,4.46
2018-01-16T22:11:33.969Z,4.51
2018-01-16T22:13:27.350Z,4.53
2018-01-16T22:14:27.293Z,4.42
2018-01-16T22:16:41.652Z,4.41
2018-01-16T22:18:13.991Z,4.36
2018-01-16T22:19:13.946Z,4.38
2018-01-16T22:21:10.750Z,4.38
2018-01-16T22:22:10.589Z,4.36
2018-01-16T22:25:37.480Z,4.42
2018-01-16T22:27:50.972Z,4.49
2018-01-16T22:28:50.781Z,4.51
2018-01-16T22:30:45.053Z,4.56
2018-01-16T22:32:57.473Z,4.60
2018-01-16T22:35:10.966Z,4.51
2018-01-16T22:38:56.992Z,4.56
2018-01-16T22:41:31.437Z,4.48
2018-01-16T22:43:05.389Z,4.61
2018-01-16T22:44:04.447Z,4.57
2018-01-16T22:46:00.297Z,4.51
2018-01-16T22:47:00.252Z,4.53
2018-01-16T22:48:54.557Z,4.54
2018-01-16T22:49:53.564Z,4.43
2018-01-16T22:53:40.662Z,4.49
2018-01-16T22:55:13.098Z,4.39
2018-01-16T22:56:12.942Z,4.35
2018-01-16T22:58:06.286Z,4.36
2018-01-16T22:59:06.247Z,4.36
2018-01-16T23:01:20.717Z,4.41
2018-01-16T23:03:14.108Z,4.34
2018-01-16T23:06:40.012Z,4.26
2018-01-16T23:08:33.664Z,4.23
2018-01-16T23:10:06.635Z,4.17
2018-01-16T23:12:19.039Z,4.12
2018-01-16T23:14:32.501Z,4.09
2018-01-16T23:15:32.349Z,4.08
2018-01-16T23:17:25.808Z,4.05
2018-01-16T23:20:00.195Z,3.94
2018-01-16T23:21:32.408Z,3.94
2018-01-16T23:27:14.976Z,3.76
2018-01-16T23:29:08.169Z,3.74
2018-01-16T23:30:40.503Z,3.80
2018-01-16T23:31:40.458Z,3.70
2018-01-16T23:33:55.008Z,3.66
2018-01-16T23:35:28.086Z,3.64
2018-01-16T23:37:40.484Z,3.54
2018-01-16T23:41:30.060Z,3.60
2018-01-16T23:42:29.907Z,3.59
2018-01-16T23:44:23.264Z,3.52
2018-01-16T23:46:57.618Z,3.56
2018-01-16T23:48:30.086Z,3.44
2018-01-16T23:49:29.926Z,3.45
2018-01-16T23:51:44.279Z,3.41
2018-01-16T23:53:37.725Z,3.42
2018-01-16T23:56:45.173Z,3.48
2018-01-16T23:59:22.124Z,3.45
